createdAt,value
2022-09-20T00:01:35.866Z,82.74
2022-09-20T00:04:07.040Z,82.63
2022-09-20T00:06:35.413Z,82.64
2022-09-20T00:09:04.736Z,82.75
2022-09-20T00:11:34.982Z,82.90
2022-09-20T00:14:08.406Z,83.05
2022-09-20T00:16:40.998Z,82.97
2022-09-20T00:19:09.317Z,82.80
2022-09-20T00:21:37.840Z,82.82
2022-09-20T00:24:06.074Z,82.80
2022-09-20T00:26:33.919Z,82.54
2022-09-20T00:29:01.637Z,82.41
2022-09-20T00:31:29.269Z,82.25
2022-09-20T00:34:16.961Z,82.26
2022-09-20T00:36:45.190Z,82.52
2022-09-20T00:39:15.598Z,82.88
2022-09-20T00:41:43.986Z,82.86
2022-09-20T00:44:57.131Z,82.78
2022-09-20T00:47:44.676Z,82.76
2022-09-20T00:50:25.407Z,82.51
2022-09-20T00:53:06.295Z,82.69
2022-09-20T00:55:38.200Z,82.35
2022-09-20T00:58:06.990Z,82.34
2022-09-20T01:00:34.494Z,82.04
2022-09-20T01:03:09.017Z,82.09
2022-09-20T01:05:38.277Z,82.39
2022-09-20T01:08:07.000Z,81.95
2022-09-20T01:10:34.767Z,81.85
2022-09-20T01:13:02.874Z,81.93
2022-09-20T01:15:32.936Z,81.53
2022-09-20T01:18:03.822Z,81.53
2022-09-20T01:20:42.132Z,81.54
2022-09-20T01:23:21.603Z,81.93
2022-09-20T01:26:09.940Z,82.00
2022-09-20T01:28:42.303Z,82.13
2022-09-20T01:31:26.755Z,81.70
2022-09-20T01:34:09.575Z,81.66
2022-09-20T01:36:53.170Z,81.61
2022-09-20T01:39:52.392Z,81.51
2022-09-20T01:42:30.029Z,81.33
2022-09-20T01:45:09.851Z,81.19
2022-09-20T01:47:56.816Z,81.31
2022-09-20T01:50:45.523Z,81.22
2022-09-20T01:54:00.330Z,80.95
2022-09-20T01:56:44.496Z,80.99
2022-09-20T01:59:51.388Z,80.98
2022-09-20T02:03:08.515Z,80.83
2022-09-20T02:05:47.653Z,80.91
2022-09-20T02:08:51.773Z,81.02
2022-09-20T02:11:23.461Z,80.96
2022-09-20T02:14:27.510Z,80.85
2022-09-20T02:17:05.108Z,80.58
2022-09-20T02:19:38.604Z,80.79
2022-09-20T02:22:31.375Z,80.88
2022-09-20T02:25:33.194Z,80.87
2022-09-20T02:28:42.074Z,81.05
2022-09-20T02:31:36.734Z,81.22
2022-09-20T02:34:42.814Z,81.14
2022-09-20T02:37:52.946Z,81.04
2022-09-20T02:41:07.000Z,80.94
2022-09-20T02:44:16.585Z,80.96
2022-09-20T02:47:02.234Z,80.80
2022-09-20T02:50:08.244Z,80.35
2022-09-20T02:53:04.271Z,80.01
2022-09-20T02:55:56.431Z,79.95
2022-09-20T02:58:38.789Z,80.11
2022-09-20T03:01:24.683Z,79.59
2022-09-20T03:04:25.725Z,79.64
2022-09-20T03:07:58.060Z,79.42
2022-09-20T03:10:54.807Z,79.01
2022-09-20T03:13:40.560Z,79.16
2022-09-20T03:16:30.816Z,79.47
2022-09-20T03:19:00.849Z,79.38
2022-09-20T03:21:34.784Z,79.74
2022-09-20T03:24:33.361Z,80.10
2022-09-20T03:27:24.215Z,80.44
2022-09-20T03:30:26.287Z,80.74
2022-09-20T03:33:42.512Z,80.89
2022-09-20T03:36:54.281Z,80.50
2022-09-20T03:39:43.226Z,81.07
2022-09-20T03:42:29.650Z,81.43
2022-09-20T03:45:35.293Z,81.06
2022-09-20T03:48:37.060Z,80.67
2022-09-20T03:51:49.643Z,80.69
2022-09-20T03:54:48.044Z,80.79
2022-09-20T03:58:16.495Z,81.25
2022-09-20T04:01:12.414Z,81.58
2022-09-20T04:04:13.015Z,81.53
2022-09-20T04:07:08.653Z,81.41
2022-09-20T04:10:00.359Z,81.46
2022-09-20T04:12:50.449Z,81.26
2022-09-20T04:15:46.120Z,81.23
2022-09-20T04:18:46.439Z,80.85
2022-09-20T04:21:31.626Z,80.81
2022-09-20T04:24:30.022Z,80.71
2022-09-20T04:27:06.099Z,80.25
2022-09-20T04:30:20.995Z,80.18
2022-09-20T04:32:54.659Z,80.15
2022-09-20T04:36:25.832Z,80.16
2022-09-20T04:39:06.177Z,79.92
2022-09-20T04:42:22.045Z,79.75
2022-09-20T04:44:58.089Z,79.91
2022-09-20T04:47:45.108Z,79.92
2022-09-20T04:50:41.578Z,79.81
2022-09-20T04:53:22.341Z,79.53
2022-09-20T04:55:55.605Z,79.68
2022-09-20T04:58:50.895Z,79.23
2022-09-20T05:02:09.178Z,79.21
2022-09-20T05:04:55.296Z,79.38
2022-09-20T05:08:05.087Z,79.34
2022-09-20T05:11:30.588Z,79.75
2022-09-20T05:14:54.015Z,79.68
2022-09-20T05:17:32.842Z,79.80
2022-09-20T05:20:28.000Z,79.54
2022-09-20T05:23:15.244Z,79.51
2022-09-20T05:26:08.315Z,79.14
2022-09-20T05:29:02.288Z,78.11
2022-09-20T05:32:12.680Z,77.85
2022-09-20T05:35:05.376Z,77.84
2022-09-20T05:38:06.128Z,77.46
2022-09-20T05:41:14.239Z,77.39
2022-09-20T05:44:12.656Z,77.00
2022-09-20T05:47:08.857Z,77.04
2022-09-20T05:50:13.957Z,76.84
2022-09-20T05:53:38.015Z,76.44
2022-09-20T05:57:07.328Z,76.37
2022-09-20T06:00:17.056Z,75.99
2022-09-20T06:03:10.455Z,75.43
2022-09-20T06:06:04.804Z,75.16
2022-09-20T06:09:05.511Z,75.58
2022-09-20T06:12:19.374Z,73.02
2022-09-20T06:15:13.072Z,70.39
2022-09-20T06:17:53.215Z,70.81
2022-09-20T06:20:37.388Z,70.85
2022-09-20T06:23:06.214Z,71.20
2022-09-20T06:25:56.082Z,72.71
2022-09-20T06:28:31.000Z,72.97
2022-09-20T06:30:58.825Z,72.07
2022-09-20T06:33:28.993Z,71.27
2022-09-20T06:36:23.803Z,71.09
2022-09-20T06:39:38.461Z,69.47
2022-09-20T06:42:06.632Z,70.27
2022-09-20T06:44:34.093Z,68.58
2022-09-20T06:47:01.786Z,67.67
2022-09-20T06:49:29.428Z,67.21
2022-09-20T06:51:57.508Z,68.46
2022-09-20T06:54:26.987Z,67.55
2022-09-20T06:56:54.802Z,67.90
2022-09-20T06:59:22.313Z,67.73
2022-09-20T07:01:50.024Z,68.26
2022-09-20T07:04:17.572Z,69.85
2022-09-20T07:06:45.044Z,69.88
2022-09-20T07:09:12.625Z,70.59
2022-09-20T07:11:40.258Z,69.62
2022-09-20T07:14:07.958Z,70.78
2022-09-20T07:16:36.876Z,70.36
2022-09-20T07:19:06.563Z,71.47
2022-09-20T07:21:34.136Z,71.61
2022-09-20T07:24:02.416Z,71.51
2022-09-20T07:26:31.078Z,70.76
2022-09-20T07:29:00.148Z,71.41
2022-09-20T07:31:29.648Z,71.20
2022-09-20T07:33:57.568Z,70.95
2022-09-20T07:36:25.148Z,71.93
2022-09-20T07:38:53.249Z,71.28
2022-09-20T07:41:23.307Z,71.40
2022-09-20T07:43:51.875Z,71.89
2022-09-20T07:46:23.073Z,72.51
2022-09-20T07:48:50.520Z,72.82
2022-09-20T07:51:18.058Z,72.27
2022-09-20T07:53:45.560Z,71.18
2022-09-20T07:56:16.026Z,70.28
2022-09-20T07:58:48.604Z,70.41
2022-09-20T08:01:21.089Z,69.92
2022-09-20T08:03:48.906Z,69.35
2022-09-20T08:06:18.456Z,69.76
2022-09-20T08:08:45.952Z,69.34
2022-09-20T08:11:17.367Z,67.36
2022-09-20T08:14:08.056Z,62.75
2022-09-20T08:16:50.245Z,54.97
2022-09-20T08:19:23.564Z,52.78
2022-09-20T08:21:55.129Z,54.98
2022-09-20T08:24:22.787Z,57.71
2022-09-20T08:26:50.266Z,59.25
2022-09-20T08:29:17.778Z,58.31
2022-09-20T08:31:46.437Z,55.70
2022-09-20T08:34:16.129Z,57.17
2022-09-20T08:36:47.165Z,56.31
2022-09-20T08:42:22.199Z,57.28
2022-09-20T08:45:33.824Z,56.53
2022-09-20T08:48:09.797Z,54.45
2022-09-20T08:50:37.909Z,52.81
2022-09-20T08:53:05.423Z,51.71
2022-09-20T08:55:37.608Z,52.79
2022-09-20T08:58:08.848Z,50.68
2022-09-20T09:00:39.820Z,50.96
2022-09-20T09:03:14.354Z,49.31
2022-09-20T09:05:45.437Z,45.97
2022-09-20T09:08:21.330Z,47.04
2022-09-20T09:10:55.131Z,47.47
2022-09-20T09:13:42.294Z,46.13
2022-09-20T09:16:22.018Z,46.41
2022-09-20T09:18:51.516Z,47.51
2022-09-20T09:21:25.944Z,47.92
2022-09-20T09:24:09.494Z,44.12
2022-09-20T09:26:40.782Z,43.52
2022-09-20T09:29:20.502Z,43.91
2022-09-20T09:31:53.076Z,47.39
2022-09-20T09:34:38.899Z,46.98
2022-09-20T09:37:24.146Z,45.95
2022-09-20T09:40:18.009Z,42.95
2022-09-20T09:42:59.401Z,45.42
2022-09-20T09:45:40.872Z,47.09
2022-09-20T09:48:33.251Z,48.35
2022-09-20T09:51:23.162Z,51.57
2022-09-20T09:53:51.496Z,48.15
2022-09-20T09:57:04.743Z,47.08
2022-09-20T09:59:54.973Z,42.65
2022-09-20T10:03:20.773Z,40.08
2022-09-20T10:06:16.708Z,42.61
2022-09-20T10:09:13.020Z,41.33
2022-09-20T10:12:15.611Z,47.68
2022-09-20T10:14:55.398Z,48.78
2022-09-20T10:18:17.263Z,43.92
2022-09-20T10:21:39.069Z,43.72
2022-09-20T10:24:33.309Z,45.98
2022-09-20T10:27:30.661Z,47.67
2022-09-20T10:30:14.474Z,49.30
2022-09-20T10:32:59.857Z,50.26
2022-09-20T10:36:07.004Z,51.44
2022-09-20T10:38:57.473Z,47.83
2022-09-20T10:42:08.391Z,44.37
2022-09-20T10:45:02.279Z,43.61
2022-09-20T10:47:59.728Z,45.77
2022-09-20T10:50:51.736Z,47.14
2022-09-20T10:53:49.569Z,47.54
2022-09-20T10:56:40.071Z,44.38
2022-09-20T10:59:23.551Z,43.82
2022-09-20T11:02:14.087Z,41.90
2022-09-20T11:05:14.393Z,43.22
2022-09-20T11:08:12.104Z,41.52
2022-09-20T11:10:48.971Z,43.16
2022-09-20T11:13:32.294Z,44.47
2022-09-20T11:16:53.609Z,44.89
2022-09-20T11:20:11.353Z,47.42
2022-09-20T11:22:48.232Z,47.45
2022-09-20T11:25:44.332Z,48.80
2022-09-20T11:28:23.157Z,49.44
2022-09-20T11:31:35.975Z,49.32
2022-09-20T11:34:27.535Z,48.35
2022-09-20T11:37:03.137Z,46.40
2022-09-20T11:39:54.491Z,47.74
2022-09-20T11:42:27.872Z,47.12
2022-09-20T11:44:55.918Z,49.14
2022-09-20T11:48:09.815Z,50.10
2022-09-20T11:51:22.142Z,49.95
2022-09-20T11:54:33.105Z,47.71
2022-09-20T11:57:00.672Z,46.96
2022-09-20T11:59:41.010Z,48.31
2022-09-20T12:02:27.294Z,48.40
2022-09-20T12:04:55.981Z,48.44
2022-09-20T12:07:44.371Z,44.70
2022-09-20T12:10:42.845Z,41.63
2022-09-20T12:13:25.359Z,42.15
2022-09-20T12:16:40.976Z,42.24
2022-09-20T12:19:15.124Z,41.97
2022-09-20T12:22:00.658Z,43.16
2022-09-20T12:24:45.327Z,41.91
2022-09-20T12:27:26.331Z,45.17
2022-09-20T12:30:05.453Z,42.98
2022-09-20T12:32:52.201Z,43.08
2022-09-20T12:35:39.079Z,43.82
2022-09-20T12:38:21.495Z,45.07
2022-09-20T12:41:27.755Z,45.97
2022-09-20T12:44:03.111Z,46.86
2022-09-20T12:46:53.099Z,48.26
2022-09-20T12:49:48.258Z,49.68
2022-09-20T12:52:43.076Z,50.19
2022-09-20T12:55:41.284Z,49.09
2022-09-20T12:58:13.383Z,50.45
2022-09-20T13:01:14.738Z,48.96
2022-09-20T13:03:46.896Z,43.43
2022-09-20T13:06:14.972Z,44.11
2022-09-20T13:09:00.844Z,43.68
2022-09-20T13:11:54.312Z,43.75
2022-09-20T13:14:28.134Z,45.12
2022-09-20T13:17:19.336Z,45.42
2022-09-20T13:19:49.327Z,45.52
2022-09-20T13:22:33.145Z,45.82
2022-09-20T13:25:05.568Z,46.73
2022-09-20T13:27:38.567Z,46.18
2022-09-20T13:30:24.347Z,46.36
2022-09-20T13:32:52.805Z,46.31
2022-09-20T13:35:24.044Z,42.74
2022-09-20T13:38:02.230Z,44.16
2022-09-20T13:40:50.048Z,46.24
2022-09-20T13:43:31.406Z,47.52
2022-09-20T13:46:12.317Z,43.82
2022-09-20T13:48:40.846Z,47.88
2022-09-20T13:51:40.718Z,45.61
2022-09-20T13:54:18.624Z,46.31
2022-09-20T13:56:46.153Z,46.18
2022-09-20T13:59:19.384Z,45.14
2022-09-20T14:01:54.481Z,45.97
2022-09-20T14:04:28.992Z,46.05
2022-09-20T14:06:59.754Z,44.24
2022-09-20T14:09:35.128Z,44.29
2022-09-20T14:12:06.453Z,45.38
2022-09-20T14:14:35.750Z,44.31
2022-09-20T14:17:08.798Z,44.11
2022-09-20T14:19:41.857Z,44.48
2022-09-20T14:22:20.944Z,44.23
2022-09-20T14:25:25.540Z,45.15
2022-09-20T14:28:19.761Z,46.27
2022-09-20T14:30:48.836Z,47.49
2022-09-20T14:33:21.199Z,47.20
2022-09-20T14:35:51.514Z,47.56
2022-09-20T14:38:26.831Z,47.65
2022-09-20T14:40:54.531Z,48.15
2022-09-20T14:43:34.845Z,48.51
2022-09-20T14:46:08.710Z,48.50
2022-09-20T14:48:41.380Z,48.27
2022-09-20T14:51:29.195Z,48.22
2022-09-20T14:54:05.911Z,48.29
2022-09-20T14:56:39.530Z,48.80
2022-09-20T14:59:13.928Z,49.03
2022-09-20T15:01:55.905Z,49.52
2022-09-20T15:04:27.382Z,50.26
2022-09-20T15:07:01.028Z,51.17
2022-09-20T15:09:30.033Z,50.72
2022-09-20T15:12:17.821Z,50.88
2022-09-20T15:14:46.991Z,51.06
2022-09-20T15:17:18.556Z,51.47
2022-09-20T15:19:47.993Z,51.79
2022-09-20T15:22:15.713Z,51.32
2022-09-20T15:24:43.498Z,51.08
2022-09-20T15:27:14.261Z,51.65
2022-09-20T15:29:41.721Z,52.03
2022-09-20T15:32:12.325Z,52.16
2022-09-20T15:34:39.792Z,51.85
2022-09-20T15:37:07.991Z,51.50
2022-09-20T15:39:35.381Z,51.41
2022-09-20T15:42:03.332Z,51.66
2022-09-20T15:44:32.676Z,51.70
2022-09-20T15:47:00.224Z,51.90
2022-09-20T15:49:27.736Z,52.45
2022-09-20T15:51:55.220Z,54.96
2022-09-20T15:54:22.971Z,56.81
2022-09-20T15:56:51.872Z,58.39
2022-09-20T15:59:23.102Z,58.81
2022-09-20T16:01:51.647Z,59.30
2022-09-20T16:04:20.553Z,60.02
2022-09-20T16:06:50.511Z,60.76
2022-09-20T16:09:19.632Z,61.36
2022-09-20T16:11:48.384Z,61.31
2022-09-20T16:14:15.865Z,61.88
2022-09-20T16:16:43.413Z,62.09
2022-09-20T16:19:17.445Z,62.40
2022-09-20T16:21:58.539Z,63.39
2022-09-20T16:24:33.964Z,63.82
2022-09-20T16:27:06.134Z,65.33
2022-09-20T16:29:34.589Z,70.16
2022-09-20T16:32:03.717Z,73.56
2022-09-20T16:34:36.512Z,75.40
2022-09-20T16:37:14.821Z,77.21
2022-09-20T16:39:42.829Z,79.01
2022-09-20T16:42:12.883Z,79.06
2022-09-20T16:44:42.962Z,78.84
2022-09-20T16:47:18.687Z,78.64
2022-09-20T16:49:47.333Z,79.90
2022-09-20T16:52:15.050Z,80.79
2022-09-20T16:54:42.542Z,80.78
2022-09-20T16:57:10.021Z,81.13
2022-09-20T16:59:37.501Z,81.00
2022-09-20T17:02:05.031Z,81.55
2022-09-20T17:04:32.551Z,81.53
2022-09-20T17:07:01.753Z,80.72
2022-09-20T17:09:29.342Z,80.20
2022-09-20T17:11:56.886Z,80.09
2022-09-20T17:14:25.043Z,80.02
2022-09-20T17:16:52.596Z,80.23
2022-09-20T17:19:21.301Z,81.32
2022-09-20T17:21:50.959Z,81.85
2022-09-20T17:24:23.191Z,82.68
2022-09-20T17:26:52.525Z,83.42
2022-09-20T17:29:21.261Z,84.02
2022-09-20T17:31:55.490Z,84.15
2022-09-20T17:34:24.614Z,84.11
2022-09-20T17:36:54.178Z,84.06
2022-09-20T17:39:21.683Z,83.98
2022-09-20T17:41:50.735Z,83.87
2022-09-20T17:44:18.842Z,83.95
2022-09-20T17:46:49.912Z,84.10
2022-09-20T17:49:20.891Z,84.08
2022-09-20T17:51:54.495Z,84.15
2022-09-20T17:54:24.596Z,84.41
2022-09-20T17:56:55.932Z,84.98
2022-09-20T17:59:24.652Z,85.36
2022-09-20T18:01:54.348Z,86.24
2022-09-20T18:04:24.421Z,85.97
2022-09-20T18:06:54.733Z,86.07
2022-09-20T18:09:25.279Z,86.32
2022-09-20T18:11:55.730Z,85.94
2022-09-20T18:14:27.636Z,85.81
2022-09-20T18:17:00.723Z,85.83
2022-09-20T18:19:35.748Z,85.96
2022-09-20T18:22:04.142Z,86.86
2022-09-20T18:24:31.735Z,87.36
2022-09-20T18:27:00.826Z,87.42
2022-09-20T18:29:31.827Z,87.50
2022-09-20T18:32:00.829Z,87.63
2022-09-20T18:34:33.549Z,87.61
2022-09-20T18:37:03.783Z,87.37
2022-09-20T18:39:34.764Z,87.54
2022-09-20T18:42:03.510Z,87.27
2022-09-20T18:44:34.308Z,87.38
2022-09-20T18:47:05.728Z,87.15
2022-09-20T18:49:33.395Z,87.13
2022-09-20T18:52:01.543Z,87.05
2022-09-20T18:54:33.208Z,87.07
2022-09-20T18:57:01.076Z,87.01
2022-09-20T18:59:29.061Z,86.90
2022-09-20T19:02:31.296Z,87.17
2022-09-20T19:05:20.081Z,87.48
2022-09-20T19:08:05.547Z,87.76
2022-09-20T19:10:51.356Z,87.79
2022-09-20T19:13:55.070Z,87.79
2022-09-20T19:16:31.961Z,87.86
2022-09-20T19:19:26.416Z,87.57
2022-09-20T19:22:34.823Z,87.79
2022-09-20T19:25:43.426Z,87.73
2022-09-20T19:28:14.735Z,87.76
2022-09-20T19:30:43.137Z,87.68
2022-09-20T19:33:17.776Z,87.72
2022-09-20T19:35:50.471Z,87.55
2022-09-20T19:38:40.674Z,87.39
2022-09-20T19:41:38.375Z,87.53
2022-09-20T19:44:54.794Z,87.36
2022-09-20T19:48:07.049Z,87.09
2022-09-20T19:50:52.877Z,87.20
2022-09-20T19:53:28.076Z,87.17
2022-09-20T19:56:24.715Z,87.38
2022-09-20T19:58:54.152Z,87.35
2022-09-20T20:01:23.967Z,87.27
2022-09-20T20:03:55.861Z,87.20
2022-09-20T20:06:39.072Z,87.36
2022-09-20T20:09:29.146Z,87.19
2022-09-20T20:12:25.692Z,87.30
2022-09-20T20:15:16.225Z,87.25
2022-09-20T20:18:39.051Z,87.07
2022-09-20T20:21:24.726Z,86.97
2022-09-20T20:24:41.394Z,86.92
2022-09-20T20:27:08.923Z,86.73
2022-09-20T20:29:36.386Z,86.77
2022-09-20T20:32:03.968Z,86.75
2022-09-20T20:34:31.416Z,86.65
2022-09-20T20:37:00.963Z,86.48
2022-09-20T20:39:29.654Z,86.70
2022-09-20T20:42:02.564Z,86.58
2022-09-20T20:44:37.780Z,86.57
2022-09-20T20:47:07.119Z,86.69
2022-09-20T20:49:35.934Z,86.71
2022-09-20T20:52:05.124Z,86.73
2022-09-20T20:54:32.960Z,87.00
2022-09-20T20:57:00.646Z,87.06
2022-09-20T20:59:29.822Z,86.96
2022-09-20T21:01:57.332Z,86.81
2022-09-20T21:04:25.393Z,87.06
2022-09-20T21:06:52.823Z,86.88
2022-09-20T21:09:20.359Z,87.11
2022-09-20T21:11:48.462Z,87.30
2022-09-20T21:14:16.493Z,87.46
2022-09-20T21:16:45.037Z,87.54
2022-09-20T21:19:15.618Z,87.58
2022-09-20T21:21:46.043Z,87.73
2022-09-20T21:24:17.351Z,87.54
2022-09-20T21:26:46.529Z,87.49
2022-09-20T21:29:16.646Z,87.28
2022-09-20T21:31:46.696Z,87.17
2022-09-20T21:34:15.947Z,87.11
2022-09-20T21:36:44.848Z,86.86
2022-09-20T21:39:13.290Z,87.00
2022-09-20T21:41:41.500Z,86.94
2022-09-20T21:44:12.287Z,86.72
2022-09-20T21:46:42.156Z,86.52
2022-09-20T21:49:12.376Z,86.32
2022-09-20T21:51:42.690Z,86.36
2022-09-20T21:54:11.248Z,86.30
2022-09-20T21:56:40.522Z,86.26
2022-09-20T21:59:08.216Z,86.16
2022-09-20T22:01:40.312Z,86.08
2022-09-20T22:04:11.631Z,86.06
2022-09-20T22:06:42.802Z,86.31
2022-09-20T22:09:17.739Z,86.27
2022-09-20T22:11:48.521Z,86.51
2022-09-20T22:14:19.677Z,86.35
2022-09-20T22:16:49.188Z,86.26
2022-09-20T22:19:19.192Z,86.18
2022-09-20T22:21:49.747Z,86.17
2022-09-20T22:24:18.023Z,86.19
2022-09-20T22:26:51.036Z,85.97
2022-09-20T22:29:18.834Z,85.98
2022-09-20T22:31:48.122Z,85.96
2022-09-20T22:34:21.317Z,85.92
2022-09-20T22:36:49.324Z,85.89
2022-09-20T22:39:17.312Z,86.11
2022-09-20T22:41:47.721Z,86.24
2022-09-20T22:44:15.450Z,86.18
2022-09-20T22:46:42.915Z,86.16
2022-09-20T22:49:10.457Z,86.20
2022-09-20T22:51:38.679Z,86.07
2022-09-20T22:54:10.150Z,85.94
2022-09-20T22:56:41.217Z,85.66
2022-09-20T22:59:12.751Z,85.51
2022-09-20T23:01:47.949Z,85.53
2022-09-20T23:04:19.367Z,85.69
2022-09-20T23:06:57.007Z,85.51
2022-09-20T23:09:28.210Z,85.44
2022-09-20T23:11:56.508Z,85.53
2022-09-20T23:14:24.019Z,85.44
2022-09-20T23:16:51.660Z,85.27
2022-09-20T23:19:19.173Z,85.29
2022-09-20T23:21:46.850Z,85.15
2022-09-20T23:24:16.602Z,85.12
2022-09-20T23:26:44.766Z,85.22
2022-09-20T23:29:16.267Z,85.04
2022-09-20T23:31:46.680Z,84.93
2022-09-20T23:34:16.297Z,84.99
2022-09-20T23:36:45.138Z,85.00
2022-09-20T23:39:13.149Z,85.13
2022-09-20T23:41:41.559Z,85.16
2022-09-20T23:44:10.358Z,84.74
2022-09-20T23:46:39.065Z,84.55
2022-09-20T23:49:09.029Z,84.42
2022-09-20T23:51:37.367Z,84.43
2022-09-20T23:54:05.949Z,84.93
2022-09-20T23:56:33.589Z,85.19
2022-09-20T23:59:01.011Z,85.33
